sensor_id;sensor_type;location;lat;lon;timestamp;pressure;altitude;pressure_sealevel;temperature;humidity
73974;BME280;62336;-26.094;27.994;2024-01-06T00:01:58;85019.23;;;32.94;18.80
73974;BME280;62336;-26.094;27.994;2024-01-06T00:04:22;85016.12;;;32.86;19.10
73974;BME280;62336;-26.094;27.994;2024-01-06T00:06:48;85013.15;;;33.34;18.74
73974;BME280;62336;-26.094;27.994;2024-01-06T00:09:14;85013.10;;;33.13;18.71
73974;BME280;62336;-26.094;27.994;2024-01-06T00:11:38;85010.96;;;33.39;18.55
73974;BME280;62336;-26.094;27.994;2024-01-06T00:14:04;85005.39;;;33.43;18.54
73974;BME280;62336;-26.094;27.994;2024-01-06T00:16:29;84998.16;;;34.08;18.37
73974;BME280;62336;-26.094;27.994;2024-01-06T00:18:55;84996.98;;;33.31;18.66
73974;BME280;62336;-26.094;27.994;2024-01-06T00:21:20;84990.49;;;34.37;18.11
73974;BME280;62336;-26.094;27.994;2024-01-06T00:23:46;84991.63;;;34.16;18.16
73974;BME280;62336;-26.094;27.994;2024-01-06T00:26:11;84991.49;;;34.55;17.92
73974;BME280;62336;-26.094;27.994;2024-01-06T00:28:38;84990.80;;;34.30;18.09
73974;BME280;62336;-26.094;27.994;2024-01-06T00:31:04;84990.17;;;33.97;18.41
73974;BME280;62336;-26.094;27.994;2024-01-06T00:33:27;84996.42;;;33.85;18.59
73974;BME280;62336;-26.094;27.994;2024-01-06T00:35:53;85007.90;;;33.87;18.33
73974;BME280;62336;-26.094;27.994;2024-01-06T00:38:19;85011.11;;;32.79;19.06
73974;BME280;62336;-26.094;27.994;2024-01-06T00:40:45;85008.33;;;32.62;19.16
73974;BME280;62336;-26.094;27.994;2024-01-06T00:43:10;85006.83;;;32.38;19.59
73974;BME280;62336;-26.094;27.994;2024-01-06T00:45:35;85006.30;;;32.60;19.53
73974;BME280;62336;-26.094;27.994;2024-01-06T00:48:00;85014.67;;;33.49;18.90
73974;BME280;62336;-26.094;27.994;2024-01-06T00:50:25;85021.46;;;33.79;18.76
73974;BME280;62336;-26.094;27.994;2024-01-06T00:52:51;85022.99;;;33.65;18.74
73974;BME280;62336;-26.094;27.994;2024-01-06T00:55:16;85026.74;;;33.08;19.22
73974;BME280;62336;-26.094;27.994;2024-01-06T00:57:41;85033.10;;;33.62;18.89
73974;BME280;62336;-26.094;27.994;2024-01-06T01:00:08;85035.41;;;33.69;18.86
73974;BME280;62336;-26.094;27.994;2024-01-06T01:02:32;85031.93;;;33.73;18.92
73974;BME280;62336;-26.094;27.994;2024-01-06T01:04:58;85021.54;;;34.31;18.33
73974;BME280;62336;-26.094;27.994;2024-01-06T01:07:24;85023.04;;;34.11;18.55
73974;BME280;62336;-26.094;27.994;2024-01-06T01:09:49;85019.20;;;34.46;18.27
73974;BME280;62336;-26.094;27.994;2024-01-06T01:12:15;85023.27;;;33.97;18.49
73974;BME280;62336;-26.094;27.994;2024-01-06T01:14:40;85027.27;;;33.69;18.62
73974;BME280;62336;-26.094;27.994;2024-01-06T01:17:07;85024.73;;;34.25;18.34
73974;BME280;62336;-26.094;27.994;2024-01-06T01:19:31;85031.66;;;33.82;18.54
73974;BME280;62336;-26.094;27.994;2024-01-06T01:21:56;85025.87;;;34.52;18.06
73974;BME280;62336;-26.094;27.994;2024-01-06T01:24:22;85017.29;;;34.45;18.10
73974;BME280;62336;-26.094;27.994;2024-01-06T01:26:47;85013.69;;;34.45;17.89
73974;BME280;62336;-26.094;27.994;2024-01-06T01:29:12;85012.96;;;34.74;17.62
73974;BME280;62336;-26.094;27.994;2024-01-06T01:31:38;85011.76;;;34.58;17.71
73974;BME280;62336;-26.094;27.994;2024-01-06T01:34:03;85012.83;;;34.26;18.06
73974;BME280;62336;-26.094;27.994;2024-01-06T01:36:28;85005.37;;;34.42;17.94
73974;BME280;62336;-26.094;27.994;2024-01-06T01:38:54;84996.15;;;34.69;17.88
73974;BME280;62336;-26.094;27.994;2024-01-06T01:41:20;84992.95;;;34.29;18.18
73974;BME280;62336;-26.094;27.994;2024-01-06T01:43:46;84989.39;;;34.33;18.13
73974;BME280;62336;-26.094;27.994;2024-01-06T01:46:11;84984.62;;;34.56;18.00
73974;BME280;62336;-26.094;27.994;2024-01-06T01:48:36;84977.22;;;34.01;18.25
73974;BME280;62336;-26.094;27.994;2024-01-06T01:51:02;84967.79;;;33.59;18.73
73974;BME280;62336;-26.094;27.994;2024-01-06T01:53:28;84961.62;;;33.38;18.55
73974;BME280;62336;-26.094;27.994;2024-01-06T01:55:53;84958.95;;;34.02;18.50
73974;BME280;62336;-26.094;27.994;2024-01-06T01:58:18;84961.85;;;34.03;18.44
73974;BME280;62336;-26.094;27.994;2024-01-06T02:00:43;84958.00;;;33.62;18.49
73974;BME280;62336;-26.094;27.994;2024-01-06T02:03:09;84956.51;;;34.08;18.37
73974;BME280;62336;-26.094;27.994;2024-01-06T02:05:34;84955.81;;;34.26;18.32
73974;BME280;62336;-26.094;27.994;2024-01-06T02:07:59;84957.71;;;34.55;18.08
73974;BME280;62336;-26.094;27.994;2024-01-06T02:10:25;84959.31;;;34.36;18.12
73974;BME280;62336;-26.094;27.994;2024-01-06T02:12:50;84962.42;;;33.76;18.69
73974;BME280;62336;-26.094;27.994;2024-01-06T02:15:16;84971.19;;;33.22;18.88
73974;BME280;62336;-26.094;27.994;2024-01-06T02:17:42;84975.32;;;34.14;18.38
73974;BME280;62336;-26.094;27.994;2024-01-06T02:20:08;84974.31;;;34.52;18.23
73974;BME280;62336;-26.094;27.994;2024-01-06T02:22:33;84972.03;;;34.22;18.25
73974;BME280;62336;-26.094;27.994;2024-01-06T02:24:59;84972.16;;;34.13;18.38
73974;BME280;62336;-26.094;27.994;2024-01-06T02:27:24;84971.43;;;33.43;18.64
73974;BME280;62336;-26.094;27.994;2024-01-06T02:29:50;84976.64;;;33.32;18.93
73974;BME280;62336;-26.094;27.994;2024-01-06T02:32:15;84979.61;;;33.03;19.33
73974;BME280;62336;-26.094;27.994;2024-01-06T02:34:41;84978.04;;;33.05;19.17
73974;BME280;62336;-26.094;27.994;2024-01-06T02:37:06;84975.16;;;32.64;19.36
73974;BME280;62336;-26.094;27.994;2024-01-06T02:39:32;84973.97;;;33.51;19.08
73974;BME280;62336;-26.094;27.994;2024-01-06T02:41:57;84975.98;;;33.52;18.88
73974;BME280;62336;-26.094;27.994;2024-01-06T02:44:23;84979.72;;;33.40;19.06
73974;BME280;62336;-26.094;27.994;2024-01-06T02:46:48;84980.17;;;33.21;19.08
73974;BME280;62336;-26.094;27.994;2024-01-06T02:49:13;84983.41;;;33.09;19.12
73974;BME280;62336;-26.094;27.994;2024-01-06T02:51:39;84980.37;;;33.53;19.00
73974;BME280;62336;-26.094;27.994;2024-01-06T02:54:05;84980.53;;;33.41;19.00
73974;BME280;62336;-26.094;27.994;2024-01-06T02:56:30;84986.52;;;33.04;19.19
73974;BME280;62336;-26.094;27.994;2024-01-06T02:58:56;84988.71;;;33.14;19.15
73974;BME280;62336;-26.094;27.994;2024-01-06T03:01:21;84984.98;;;34.04;18.58
73974;BME280;62336;-26.094;27.994;2024-01-06T03:03:47;84988.97;;;33.51;19.10
73974;BME280;62336;-26.094;27.994;2024-01-06T03:06:12;84985.10;;;34.13;18.70
73974;BME280;62336;-26.094;27.994;2024-01-06T03:08:37;84981.72;;;34.07;18.69
73974;BME280;62336;-26.094;27.994;2024-01-06T03:11:03;84978.88;;;33.69;18.99
73974;BME280;62336;-26.094;27.994;2024-01-06T03:13:28;84978.52;;;33.01;19.50
73974;BME280;62336;-26.094;27.994;2024-01-06T03:15:53;84968.79;;;32.91;19.53
73974;BME280;62336;-26.094;27.994;2024-01-06T03:18:18;84957.49;;;32.94;19.50
73974;BME280;62336;-26.094;27.994;2024-01-06T03:20:43;84944.61;;;33.04;19.52
73974;BME280;62336;-26.094;27.994;2024-01-06T03:23:09;84930.04;;;33.27;19.30
73974;BME280;62336;-26.094;27.994;2024-01-06T03:25:35;84924.03;;;33.54;19.18
73974;BME280;62336;-26.094;27.994;2024-01-06T03:28:00;84927.58;;;32.79;19.67
73974;BME280;62336;-26.094;27.994;2024-01-06T03:30:25;84926.47;;;32.68;19.68
73974;BME280;62336;-26.094;27.994;2024-01-06T03:32:51;84920.20;;;33.07;19.33
73974;BME280;62336;-26.094;27.994;2024-01-06T03:35:16;84925.83;;;33.69;18.91
73974;BME280;62336;-26.094;27.994;2024-01-06T03:37:41;84928.14;;;33.09;19.46
73974;BME280;62336;-26.094;27.994;2024-01-06T03:40:07;84924.78;;;33.18;19.34
73974;BME280;62336;-26.094;27.994;2024-01-06T03:42:32;84921.79;;;33.32;19.30
73974;BME280;62336;-26.094;27.994;2024-01-06T03:44:57;84927.05;;;33.88;19.06
73974;BME280;62336;-26.094;27.994;2024-01-06T03:47:23;84930.98;;;32.99;19.56
73974;BME280;62336;-26.094;27.994;2024-01-06T03:49:49;84925.98;;;33.31;19.29
73974;BME280;62336;-26.094;27.994;2024-01-06T03:52:13;84926.79;;;32.84;19.57
73974;BME280;62336;-26.094;27.994;2024-01-06T03:54:39;84925.05;;;33.40;19.47
73974;BME280;62336;-26.094;27.994;2024-01-06T03:57:04;84925.76;;;33.34;19.54
73974;BME280;62336;-26.094;27.994;2024-01-06T03:59:30;84929.62;;;33.67;19.36
73974;BME280;62336;-26.094;27.994;2024-01-06T04:01:55;84925.31;;;33.09;19.78
73974;BME280;62336;-26.094;27.994;2024-01-06T04:04:21;84928.28;;;33.08;19.59
73974;BME280;62336;-26.094;27.994;2024-01-06T04:06:46;84933.92;;;32.92;19.63
73974;BME280;62336;-26.094;27.994;2024-01-06T04:09:11;84936.20;;;33.16;19.43
73974;BME280;62336;-26.094;27.994;2024-01-06T04:11:37;84944.45;;;33.54;19.20
73974;BME280;62336;-26.094;27.994;2024-01-06T04:14:02;84946.03;;;33.49;19.42
73974;BME280;62336;-26.094;27.994;2024-01-06T04:16:28;84946.65;;;34.12;19.04
73974;BME280;62336;-26.094;27.994;2024-01-06T04:18:53;84948.19;;;34.41;18.87
73974;BME280;62336;-26.094;27.994;2024-01-06T04:21:18;84950.80;;;33.68;19.36
73974;BME280;62336;-26.094;27.994;2024-01-06T04:23:44;84956.48;;;33.72;19.16
73974;BME280;62336;-26.094;27.994;2024-01-06T04:26:09;84963.75;;;34.08;19.00
73974;BME280;62336;-26.094;27.994;2024-01-06T04:28:34;84970.77;;;33.80;18.73
73974;BME280;62336;-26.094;27.994;2024-01-06T04:31:01;84973.65;;;33.43;19.35
73974;BME280;62336;-26.094;27.994;2024-01-06T04:33:25;84969.14;;;34.08;18.70
73974;BME280;62336;-26.094;27.994;2024-01-06T04:35:51;84975.42;;;33.29;19.18
73974;BME280;62336;-26.094;27.994;2024-01-06T04:38:16;84973.96;;;33.72;19.10
73974;BME280;62336;-26.094;27.994;2024-01-06T04:40:41;84980.21;;;33.81;18.88
73974;BME280;62336;-26.094;27.994;2024-01-06T04:43:07;84990.81;;;33.22;19.05
73974;BME280;62336;-26.094;27.994;2024-01-06T04:45:32;84993.02;;;33.84;18.84
73974;BME280;62336;-26.094;27.994;2024-01-06T04:47:58;84993.95;;;34.23;18.43
73974;BME280;62336;-26.094;27.994;2024-01-06T04:50:23;85003.93;;;33.69;18.75
73974;BME280;62336;-26.094;27.994;2024-01-06T04:52:49;85007.01;;;34.07;18.81
73974;BME280;62336;-26.094;27.994;2024-01-06T04:55:15;85012.36;;;33.98;19.02
73974;BME280;62336;-26.094;27.994;2024-01-06T04:57:40;85016.12;;;34.27;19.00
73974;BME280;62336;-26.094;27.994;2024-01-06T05:00:06;85014.90;;;33.94;19.04
73974;BME280;62336;-26.094;27.994;2024-01-06T05:02:31;85014.80;;;34.03;18.96
73974;BME280;62336;-26.094;27.994;2024-01-06T05:04:56;85017.70;;;34.03;18.84
73974;BME280;62336;-26.094;27.994;2024-01-06T05:07:22;85028.21;;;33.84;18.86
73974;BME280;62336;-26.094;27.994;2024-01-06T05:09:47;85029.25;;;33.66;19.25
73974;BME280;62336;-26.094;27.994;2024-01-06T05:12:12;85025.57;;;34.48;18.74
73974;BME280;62336;-26.094;27.994;2024-01-06T05:14:37;85027.70;;;34.43;18.62
73974;BME280;62336;-26.094;27.994;2024-01-06T05:17:03;85027.14;;;34.74;18.67
73974;BME280;62336;-26.094;27.994;2024-01-06T05:19:27;85023.49;;;34.10;18.78
73974;BME280;62336;-26.094;27.994;2024-01-06T05:21:53;85024.00;;;34.39;18.62
73974;BME280;62336;-26.094;27.994;2024-01-06T05:24:19;85025.11;;;34.77;18.40
73974;BME280;62336;-26.094;27.994;2024-01-06T05:26:44;85020.63;;;35.05;17.80
73974;BME280;62336;-26.094;27.994;2024-01-06T05:29:09;85024.16;;;34.73;18.27
73974;BME280;62336;-26.094;27.994;2024-01-06T05:31:35;85028.55;;;34.87;18.36
73974;BME280;62336;-26.094;27.994;2024-01-06T05:34:00;85029.48;;;35.05;18.17
73974;BME280;62336;-26.094;27.994;2024-01-06T05:36:26;85024.24;;;35.35;17.78
73974;BME280;62336;-26.094;27.994;2024-01-06T05:38:51;85022.00;;;35.21;18.01
73974;BME280;62336;-26.094;27.994;2024-01-06T05:41:17;85022.35;;;35.57;17.60
73974;BME280;62336;-26.094;27.994;2024-01-06T05:43:42;85026.02;;;35.29;17.40
73974;BME280;62336;-26.094;27.994;2024-01-06T05:46:08;85027.49;;;35.43;17.45
73974;BME280;62336;-26.094;27.994;2024-01-06T05:48:33;85031.66;;;35.69;17.46
73974;BME280;62336;-26.094;27.994;2024-01-06T05:50:59;85033.64;;;36.09;17.52
73974;BME280;62336;-26.094;27.994;2024-01-06T05:53:24;85039.70;;;35.72;17.38
73974;BME280;62336;-26.094;27.994;2024-01-06T05:55:52;85037.78;;;35.75;17.45
73974;BME280;62336;-26.094;27.994;2024-01-06T05:58:15;85039.03;;;35.87;17.27
73974;BME280;62336;-26.094;27.994;2024-01-06T06:00:44;85040.65;;;35.75;17.48
73974;BME280;62336;-26.094;27.994;2024-01-06T06:03:06;85041.57;;;35.85;17.37
73974;BME280;62336;-26.094;27.994;2024-01-06T06:05:31;85046.04;;;35.88;17.57
73974;BME280;62336;-26.094;27.994;2024-01-06T06:07:57;85048.17;;;35.85;17.36
73974;BME280;62336;-26.094;27.994;2024-01-06T06:10:22;85049.29;;;35.75;17.57
73974;BME280;62336;-26.094;27.994;2024-01-06T06:12:48;85053.19;;;35.98;17.57
73974;BME280;62336;-26.094;27.994;2024-01-06T06:15:13;85053.54;;;36.04;17.48
73974;BME280;62336;-26.094;27.994;2024-01-06T06:17:40;85053.63;;;35.99;17.63
73974;BME280;62336;-26.094;27.994;2024-01-06T06:20:05;85058.90;;;36.50;17.41
73974;BME280;62336;-26.094;27.994;2024-01-06T06:22:30;85056.09;;;36.13;17.39
73974;BME280;62336;-26.094;27.994;2024-01-06T06:24:55;85057.62;;;36.42;17.33
73974;BME280;62336;-26.094;27.994;2024-01-06T06:27:21;85056.37;;;36.18;17.47
73974;BME280;62336;-26.094;27.994;2024-01-06T06:29:46;85053.38;;;36.17;17.27
73974;BME280;62336;-26.094;27.994;2024-01-06T06:32:12;85054.01;;;36.62;17.21
73974;BME280;62336;-26.094;27.994;2024-01-06T06:34:37;85052.69;;;36.46;17.14
73974;BME280;62336;-26.094;27.994;2024-01-06T06:37:03;85053.68;;;36.28;17.07
73974;BME280;62336;-26.094;27.994;2024-01-06T06:39:28;85057.56;;;36.95;17.10
73974;BME280;62336;-26.094;27.994;2024-01-06T06:41:55;85057.93;;;36.63;17.11
73974;BME280;62336;-26.094;27.994;2024-01-06T06:44:20;85058.02;;;36.69;17.02
73974;BME280;62336;-26.094;27.994;2024-01-06T06:46:44;85055.79;;;36.99;17.01
73974;BME280;62336;-26.094;27.994;2024-01-06T06:49:10;85058.63;;;36.82;17.13
73974;BME280;62336;-26.094;27.994;2024-01-06T06:51:36;85055.21;;;36.46;17.01
73974;BME280;62336;-26.094;27.994;2024-01-06T06:54:01;85053.83;;;36.85;16.92
73974;BME280;62336;-26.094;27.994;2024-01-06T06:56:27;85056.75;;;37.25;16.84
73974;BME280;62336;-26.094;27.994;2024-01-06T06:58:52;85053.81;;;36.94;16.85
73974;BME280;62336;-26.094;27.994;2024-01-06T07:01:17;85056.71;;;37.01;16.63
73974;BME280;62336;-26.094;27.994;2024-01-06T07:03:43;85053.55;;;37.10;16.70
73974;BME280;62336;-26.094;27.994;2024-01-06T07:06:08;85058.74;;;37.18;16.83
73974;BME280;62336;-26.094;27.994;2024-01-06T07:08:34;85055.46;;;37.38;16.58
73974;BME280;62336;-26.094;27.994;2024-01-06T07:10:59;85056.43;;;37.18;16.48
73974;BME280;62336;-26.094;27.994;2024-01-06T07:13:24;85055.25;;;37.42;16.40
73974;BME280;62336;-26.094;27.994;2024-01-06T07:15:49;85053.77;;;37.34;16.44
73974;BME280;62336;-26.094;27.994;2024-01-06T07:18:15;85049.02;;;37.12;16.44
73974;BME280;62336;-26.094;27.994;2024-01-06T07:20:41;85054.15;;;37.29;16.65
73974;BME280;62336;-26.094;27.994;2024-01-06T07:23:06;85052.80;;;37.17;16.21
73974;BME280;62336;-26.094;27.994;2024-01-06T07:25:32;85052.59;;;37.69;16.39
73974;BME280;62336;-26.094;27.994;2024-01-06T07:27:57;85052.28;;;37.52;16.24
73974;BME280;62336;-26.094;27.994;2024-01-06T07:30:23;85049.17;;;37.94;16.06
73974;BME280;62336;-26.094;27.994;2024-01-06T07:32:49;85046.36;;;37.16;16.46
73974;BME280;62336;-26.094;27.994;2024-01-06T07:35:14;85048.04;;;37.55;16.27
73974;BME280;62336;-26.094;27.994;2024-01-06T07:37:39;85043.94;;;37.80;16.54
73974;BME280;62336;-26.094;27.994;2024-01-06T07:40:05;85047.42;;;37.97;16.42
73974;BME280;62336;-26.094;27.994;2024-01-06T07:42:29;85050.25;;;37.94;16.34
73974;BME280;62336;-26.094;27.994;2024-01-06T07:44:56;85046.72;;;38.07;16.40
73974;BME280;62336;-26.094;27.994;2024-01-06T07:47:21;85048.23;;;38.29;16.04
73974;BME280;62336;-26.094;27.994;2024-01-06T07:49:46;85047.98;;;37.99;16.06
73974;BME280;62336;-26.094;27.994;2024-01-06T07:52:12;85048.17;;;38.13;16.05
73974;BME280;62336;-26.094;27.994;2024-01-06T07:54:37;85049.35;;;38.07;15.96
73974;BME280;62336;-26.094;27.994;2024-01-06T07:57:03;85048.11;;;38.39;15.91
73974;BME280;62336;-26.094;27.994;2024-01-06T07:59:28;85044.66;;;38.71;15.65
73974;BME280;62336;-26.094;27.994;2024-01-06T08:01:53;85039.73;;;38.26;15.64
73974;BME280;62336;-26.094;27.994;2024-01-06T08:04:18;85042.78;;;38.37;15.73
73974;BME280;62336;-26.094;27.994;2024-01-06T08:06:43;85046.18;;;38.57;15.80
73974;BME280;62336;-26.094;27.994;2024-01-06T08:09:09;85045.82;;;38.78;15.65
73974;BME280;62336;-26.094;27.994;2024-01-06T08:11:35;85041.55;;;38.45;15.80
73974;BME280;62336;-26.094;27.994;2024-01-06T08:14:00;85039.01;;;38.59;15.75
73974;BME280;62336;-26.094;27.994;2024-01-06T08:16:25;85032.16;;;38.74;15.57
73974;BME280;62336;-26.094;27.994;2024-01-06T08:18:50;85034.65;;;38.60;15.50
73974;BME280;62336;-26.094;27.994;2024-01-06T08:21:16;85032.94;;;38.85;15.28
73974;BME280;62336;-26.094;27.994;2024-01-06T08:23:41;85032.14;;;38.70;15.31
73974;BME280;62336;-26.094;27.994;2024-01-06T08:26:06;85030.14;;;38.45;15.64
73974;BME280;62336;-26.094;27.994;2024-01-06T08:28:32;85032.08;;;38.70;15.59
73974;BME280;62336;-26.094;27.994;2024-01-06T08:30:57;85027.09;;;39.06;15.53
73974;BME280;62336;-26.094;27.994;2024-01-06T08:33:22;85024.07;;;39.29;15.55
73974;BME280;62336;-26.094;27.994;2024-01-06T08:35:47;85027.98;;;39.29;15.20
73974;BME280;62336;-26.094;27.994;2024-01-06T08:38:13;85024.72;;;39.09;14.75
73974;BME280;62336;-26.094;27.994;2024-01-06T08:40:38;85022.12;;;39.20;14.91
73974;BME280;62336;-26.094;27.994;2024-01-06T08:43:04;85019.75;;;39.56;15.18
73974;BME280;62336;-26.094;27.994;2024-01-06T08:45:31;85026.32;;;39.99;14.94
73974;BME280;62336;-26.094;27.994;2024-01-06T08:47:54;85018.71;;;39.17;14.83
73974;BME280;62336;-26.094;27.994;2024-01-06T08:50:19;85018.39;;;39.63;14.81
73974;BME280;62336;-26.094;27.994;2024-01-06T08:52:44;85009.53;;;38.86;15.03
73974;BME280;62336;-26.094;27.994;2024-01-06T08:55:10;85011.18;;;39.32;15.41
73974;BME280;62336;-26.094;27.994;2024-01-06T08:57:36;85007.48;;;39.40;15.02
73974;BME280;62336;-26.094;27.994;2024-01-06T09:00:01;85002.96;;;39.54;14.81
73974;BME280;62336;-26.094;27.994;2024-01-06T09:02:26;84999.05;;;39.58;15.07
73974;BME280;62336;-26.094;27.994;2024-01-06T09:04:53;84990.70;;;39.51;14.68
73974;BME280;62336;-26.094;27.994;2024-01-06T09:07:18;84988.58;;;39.55;14.41
73974;BME280;62336;-26.094;27.994;2024-01-06T09:09:44;84986.45;;;39.60;14.61
73974;BME280;62336;-26.094;27.994;2024-01-06T09:12:09;84990.03;;;39.56;14.57
73974;BME280;62336;-26.094;27.994;2024-01-06T09:14:34;84986.72;;;39.91;14.35
73974;BME280;62336;-26.094;27.994;2024-01-06T09:17:00;84988.92;;;40.09;14.63
73974;BME280;62336;-26.094;27.994;2024-01-06T09:19:25;84986.68;;;40.35;14.08
73974;BME280;62336;-26.094;27.994;2024-01-06T09:21:51;84983.68;;;40.31;14.34
73974;BME280;62336;-26.094;27.994;2024-01-06T09:24:16;84979.76;;;40.24;14.32
73974;BME280;62336;-26.094;27.994;2024-01-06T09:26:42;84982.10;;;40.00;14.20
73974;BME280;62336;-26.094;27.994;2024-01-06T09:29:07;84975.26;;;39.99;14.02
73974;BME280;62336;-26.094;27.994;2024-01-06T09:31:33;84977.11;;;40.11;14.21
73974;BME280;62336;-26.094;27.994;2024-01-06T09:34:01;84979.13;;;40.67;13.94
73974;BME280;62336;-26.094;27.994;2024-01-06T09:36:24;84972.59;;;40.25;13.96
73974;BME280;62336;-26.094;27.994;2024-01-06T09:38:49;84973.28;;;39.95;14.01
73974;BME280;62336;-26.094;27.994;2024-01-06T09:41:14;84974.25;;;40.40;14.20
73974;BME280;62336;-26.094;27.994;2024-01-06T09:43:39;84969.75;;;40.31;13.64
73974;BME280;62336;-26.094;27.994;2024-01-06T09:46:09;84964.33;;;39.94;13.69
73974;BME280;62336;-26.094;27.994;2024-01-06T09:48:30;84967.29;;;40.71;14.04
73974;BME280;62336;-26.094;27.994;2024-01-06T09:50:56;84966.80;;;40.61;13.99
73974;BME280;62336;-26.094;27.994;2024-01-06T09:53:21;84968.90;;;40.58;14.02
73974;BME280;62336;-26.094;27.994;2024-01-06T09:55:45;84968.72;;;40.30;14.32
73974;BME280;62336;-26.094;27.994;2024-01-06T09:58:11;84968.02;;;40.73;13.93
73974;BME280;62336;-26.094;27.994;2024-01-06T10:00:36;84964.19;;;40.60;13.63
73974;BME280;62336;-26.094;27.994;2024-01-06T10:03:02;84957.25;;;40.47;13.92
73974;BME280;62336;-26.094;27.994;2024-01-06T10:05:26;84952.44;;;40.60;13.60
73974;BME280;62336;-26.094;27.994;2024-01-06T10:07:52;84953.16;;;40.39;13.75
73974;BME280;62336;-26.094;27.994;2024-01-06T10:10:17;84948.74;;;40.49;13.48
73974;BME280;62336;-26.094;27.994;2024-01-06T10:12:42;84945.43;;;40.40;14.19
73974;BME280;62336;-26.094;27.994;2024-01-06T10:15:09;84943.92;;;40.69;13.94
73974;BME280;62336;-26.094;27.994;2024-01-06T10:17:33;84939.54;;;40.66;13.65
73974;BME280;62336;-26.094;27.994;2024-01-06T10:19:58;84941.11;;;40.64;13.48
73974;BME280;62336;-26.094;27.994;2024-01-06T10:22:24;84937.57;;;40.76;13.43
73974;BME280;62336;-26.094;27.994;2024-01-06T10:24:49;84940.58;;;40.98;13.39
73974;BME280;62336;-26.094;27.994;2024-01-06T10:27:14;84936.37;;;41.01;13.71
73974;BME280;62336;-26.094;27.994;2024-01-06T10:29:39;84935.55;;;41.07;14.13
73974;BME280;62336;-26.094;27.994;2024-01-06T10:32:05;84930.04;;;41.03;13.42
73974;BME280;62336;-26.094;27.994;2024-01-06T10:34:30;84928.42;;;41.54;12.71
73974;BME280;62336;-26.094;27.994;2024-01-06T10:36:57;84923.67;;;41.18;12.69
73974;BME280;62336;-26.094;27.994;2024-01-06T10:39:21;84924.26;;;41.26;12.29
73974;BME280;62336;-26.094;27.994;2024-01-06T10:41:47;84918.38;;;41.66;12.22
73974;BME280;62336;-26.094;27.994;2024-01-06T10:44:12;84914.22;;;41.33;12.30
73974;BME280;62336;-26.094;27.994;2024-01-06T10:46:38;84915.33;;;41.66;12.37
73974;BME280;62336;-26.094;27.994;2024-01-06T10:49:04;84911.64;;;41.42;12.16
73974;BME280;62336;-26.094;27.994;2024-01-06T10:51:28;84906.73;;;41.30;12.00
73974;BME280;62336;-26.094;27.994;2024-01-06T10:53:54;84909.24;;;41.25;12.61
73974;BME280;62336;-26.094;27.994;2024-01-06T10:56:18;84905.79;;;41.43;12.56
73974;BME280;62336;-26.094;27.994;2024-01-06T10:58:46;84902.27;;;41.04;13.39
73974;BME280;62336;-26.094;27.994;2024-01-06T11:01:09;84903.54;;;41.38;13.13
73974;BME280;62336;-26.094;27.994;2024-01-06T11:03:37;84900.60;;;41.56;12.71
73974;BME280;62336;-26.094;27.994;2024-01-06T11:05:59;84906.90;;;41.43;12.33
73974;BME280;62336;-26.094;27.994;2024-01-06T11:08:25;84900.26;;;41.75;11.95
73974;BME280;62336;-26.094;27.994;2024-01-06T11:10:50;84894.30;;;41.79;11.97
73974;BME280;62336;-26.094;27.994;2024-01-06T11:13:20;84889.46;;;42.28;11.50
73974;BME280;62336;-26.094;27.994;2024-01-06T11:15:41;84887.24;;;41.68;11.86
73974;BME280;62336;-26.094;27.994;2024-01-06T11:18:05;84883.61;;;41.64;12.36
73974;BME280;62336;-26.094;27.994;2024-01-06T11:20:30;84884.20;;;41.75;12.03
73974;BME280;62336;-26.094;27.994;2024-01-06T11:25:21;84886.50;;;42.02;11.18
73974;BME280;62336;-26.094;27.994;2024-01-06T11:27:47;84883.23;;;42.51;11.08
73974;BME280;62336;-26.094;27.994;2024-01-06T11:30:21;84880.46;;;42.28;11.15
73974;BME280;62336;-26.094;27.994;2024-01-06T11:32:36;84869.34;;;42.33;10.91
73974;BME280;62336;-26.094;27.994;2024-01-06T11:35:07;84865.77;;;42.05;10.93
73974;BME280;62336;-26.094;27.994;2024-01-06T11:37:34;84866.69;;;41.97;11.52
73974;BME280;62336;-26.094;27.994;2024-01-06T11:39:51;84868.53;;;42.05;11.25
73974;BME280;62336;-26.094;27.994;2024-01-06T11:42:16;84865.34;;;41.77;11.47
73974;BME280;62336;-26.094;27.994;2024-01-06T11:44:43;84866.31;;;41.83;11.99
73974;BME280;62336;-26.094;27.994;2024-01-06T11:47:06;84861.67;;;42.00;11.69
73974;BME280;62336;-26.094;27.994;2024-01-06T11:49:31;84862.07;;;42.10;11.73
73974;BME280;62336;-26.094;27.994;2024-01-06T11:51:56;84859.64;;;41.82;12.37
73974;BME280;62336;-26.094;27.994;2024-01-06T11:54:21;84851.79;;;42.03;12.08
73974;BME280;62336;-26.094;27.994;2024-01-06T11:56:46;84846.46;;;41.66;12.16
73974;BME280;62336;-26.094;27.994;2024-01-06T11:59:11;84842.25;;;41.95;12.12
73974;BME280;62336;-26.094;27.994;2024-01-06T12:01:37;84840.89;;;41.66;12.34
73974;BME280;62336;-26.094;27.994;2024-01-06T12:04:02;84842.50;;;41.68;12.53
73974;BME280;62336;-26.094;27.994;2024-01-06T12:06:26;84839.25;;;41.76;12.05
73974;BME280;62336;-26.094;27.994;2024-01-06T12:08:51;84833.69;;;41.72;12.07
73974;BME280;62336;-26.094;27.994;2024-01-06T12:11:18;84830.39;;;42.04;12.20
73974;BME280;62336;-26.094;27.994;2024-01-06T12:13:41;84833.70;;;41.72;12.24
73974;BME280;62336;-26.094;27.994;2024-01-06T12:16:07;84832.99;;;41.85;12.09
73974;BME280;62336;-26.094;27.994;2024-01-06T12:18:32;84826.28;;;41.94;12.09
73974;BME280;62336;-26.094;27.994;2024-01-06T12:20:57;84823.28;;;41.80;11.90
73974;BME280;62336;-26.094;27.994;2024-01-06T12:23:25;84827.36;;;41.73;11.75
73974;BME280;62336;-26.094;27.994;2024-01-06T12:25:48;84825.55;;;41.69;11.71
73974;BME280;62336;-26.094;27.994;2024-01-06T12:28:16;84823.78;;;41.69;11.79
73974;BME280;62336;-26.094;27.994;2024-01-06T12:30:39;84823.48;;;41.75;12.07
73974;BME280;62336;-26.094;27.994;2024-01-06T12:33:05;84816.28;;;41.75;11.88